Time;durP1;ratioP1;P1;durP2;ratioP2;P2;SDS_P1;SDS_P2;PMS_P1;PMS_P2;Temp;Humidity;BMP_temperature;BMP_pressure;BME280_temperature;BME280_humidity;BME280_pressure;Samples;Min_cycle;Max_cycle;Signal;HPM_P1;HPM_P2
2022/07/23 00:01:22;;;;;;;9.77;8.60;;;27.10;27.60;;;;;;10434797;28;20230;-71
2022/07/23 00:06:30;;;;;;;9.03;8.33;;;27.00;28.00;;;;;;10426157;28;20323;-71
2022/07/23 00:11:33;;;;;;;8.63;7.73;;;27.00;27.90;;;;;;10431280;28;20217;-71
2022/07/23 00:16:37;;;;;;;9.23;8.53;;;26.90;27.90;;;;;;10432950;28;20237;-71
2022/07/23 00:21:41;;;;;;;9.20;8.30;;;26.80;28.40;;;;;;10426999;28;20222;-71
2022/07/23 00:26:44;;;;;;;8.73;7.93;;;26.80;28.40;;;;;;10435160;28;20239;-72
2022/07/23 00:31:48;;;;;;;9.57;8.50;;;26.70;28.50;;;;;;10434736;28;20230;-71
2022/07/23 00:36:53;;;;;;;9.10;8.40;;;26.70;29.50;;;;;;10429875;28;20224;-71
2022/07/23 00:41:56;;;;;;;9.57;8.60;;;26.60;29.00;;;;;;10440884;28;20833;-71
2022/07/23 00:47:01;;;;;;;10.43;8.90;;;26.60;29.50;;;;;;10432387;28;20728;-71
2022/07/23 00:52:06;;;;;;;9.50;8.53;;;26.50;29.50;;;;;;10433265;28;20217;-71
2022/07/23 00:57:10;;;;;;;9.23;8.50;;;26.40;29.40;;;;;;10436345;28;20247;-71
2022/07/23 01:02:15;;;;;;;9.70;8.90;;;26.30;29.40;;;;;;10431424;28;20232;-71
2022/07/23 01:07:20;;;;;;;9.53;8.70;;;26.30;29.90;;;;;;10429565;28;20229;-71
2022/07/23 01:12:23;;;;;;;11.73;9.30;;;26.20;29.90;;;;;;10428009;28;20234;-71
2022/07/23 01:17:28;;;;;;;9.73;8.77;;;26.10;29.70;;;;;;10423655;28;20240;-71
2022/07/23 01:22:32;;;;;;;10.77;9.87;;;26.00;30.30;;;;;;10438982;28;20232;-71
2022/07/23 01:27:36;;;;;;;11.47;10.27;;;25.90;31.60;;;;;;10432311;28;20232;-71
2022/07/23 01:32:39;;;;;;;10.57;9.60;;;25.80;31.80;;;;;;10434793;28;20590;-71
2022/07/23 01:37:44;;;;;;;11.87;8.63;;;25.40;32.00;;;;;;10435054;28;20233;-71
2022/07/23 01:42:47;;;;;;;11.07;9.43;;;24.70;30.30;;;;;;10444284;23;20216;-78
2022/07/23 01:47:51;;;;;;;10.43;9.43;;;24.60;33.90;;;;;;10455971;28;20647;-76
2022/07/23 01:52:55;;;;;;;9.63;8.77;;;24.40;34.30;;;;;;10466191;28;20229;-77
2022/07/23 01:57:58;;;;;;;8.87;7.97;;;24.20;35.20;;;;;;10462895;28;20243;-77
2022/07/23 02:03:02;;;;;;;7.30;6.70;;;24.20;34.20;;;;;;10461355;28;20238;-76
2022/07/23 02:08:06;;;;;;;6.40;5.90;;;24.10;34.30;;;;;;10466277;28;20629;-77
2022/07/23 02:13:10;;;;;;;6.07;5.17;;;24.10;34.70;;;;;;10464330;28;20220;-76
2022/07/23 02:18:20;;;;;;;5.07;4.53;;;24.00;34.20;;;;;;10478367;28;20271;-77
2022/07/23 02:23:25;;;;;;;4.87;4.47;;;23.90;34.00;;;;;;10470877;28;20248;-76
2022/07/23 02:28:28;;;;;;;5.10;4.63;;;23.80;34.80;;;;;;10472407;28;20243;-77
2022/07/23 02:33:31;;;;;;;5.63;5.13;;;23.70;34.70;;;;;;10463492;28;20307;-77
2022/07/23 02:38:35;;;;;;;6.43;5.10;;;23.50;35.10;;;;;;10469543;28;20231;-77
2022/07/23 02:43:39;;;;;;;6.10;5.57;;;23.40;36.60;;;;;;10468738;28;20229;-77
2022/07/23 02:48:42;;;;;;;6.40;5.67;;;23.30;36.80;;;;;;10459320;28;20240;-72
2022/07/23 02:53:46;;;;;;;7.07;5.70;;;23.20;36.40;;;;;;10453013;28;20580;-71
2022/07/23 02:58:50;;;;;;;5.17;4.77;;;23.00;37.30;;;;;;10451657;28;20227;-71
2022/07/23 03:03:53;;;;;;;5.40;5.00;;;23.00;36.70;;;;;;10452743;28;20229;-72
2022/07/23 03:08:57;;;;;;;5.60;5.10;;;23.10;36.70;;;;;;10456189;28;20239;-71
2022/07/23 03:14:01;;;;;;;5.77;5.10;;;23.20;37.90;;;;;;10451004;28;20248;-71
2022/07/23 03:19:04;;;;;;;5.27;4.87;;;23.20;36.80;;;;;;10454037;28;20232;-71
2022/07/23 03:24:10;;;;;;;5.57;5.07;;;23.30;36.50;;;;;;10454242;28;20224;-71
2022/07/23 03:29:13;;;;;;;5.67;5.17;;;23.30;38.20;;;;;;10454383;28;20225;-71
2022/07/23 03:34:18;;;;;;;6.13;4.93;;;23.40;37.10;;;;;;10455597;28;20228;-71
2022/07/23 03:39:22;;;;;;;5.60;5.10;;;23.30;36.80;;;;;;10460392;28;20221;-72
2022/07/23 03:44:26;;;;;;;5.17;4.67;;;23.20;37.80;;;;;;10463498;28;20236;-71
2022/07/23 03:49:29;;;;;;;5.73;4.43;;;23.10;37.30;;;;;;10465259;28;20232;-71
2022/07/23 03:54:34;;;;;;;5.67;4.87;;;23.00;37.50;;;;;;10464581;28;20231;-71
2022/07/23 03:59:37;;;;;;;5.33;4.83;;;23.00;38.30;;;;;;10458604;28;20219;-72
2022/07/23 04:04:40;;;;;;;4.87;4.50;;;23.10;37.90;;;;;;10459157;28;20710;-72
2022/07/23 04:09:45;;;;;;;5.40;4.90;;;23.10;37.90;;;;;;10459951;28;20235;-71
2022/07/23 04:14:48;;;;;;;5.20;4.53;;;23.10;38.80;;;;;;10459536;28;20236;-71
2022/07/23 04:19:51;;;;;;;5.27;4.80;;;23.00;38.00;;;;;;10468875;28;20231;-76
2022/07/23 04:24:56;;;;;;;4.33;4.03;;;23.00;38.20;;;;;;10467220;28;20237;-75
2022/07/23 04:29:59;;;;;;;4.73;4.37;;;23.00;39.10;;;;;;10468523;28;20240;-71
2022/07/23 04:35:03;;;;;;;5.00;4.60;;;23.00;38.20;;;;;;10460532;28;20228;-72
2022/07/23 04:40:09;;;;;;;5.13;4.57;;;23.00;38.60;;;;;;10459119;28;20232;-71
2022/07/23 04:45:12;;;;;;;4.70;4.30;;;23.00;39.10;;;;;;10457984;28;20224;-71
2022/07/23 04:50:21;;;;;;;4.13;3.80;;;23.00;39.10;;;;;;10456308;28;20743;-72
2022/07/23 04:55:25;;;;;;;4.20;3.90;;;23.00;38.90;;;;;;10459589;28;20229;-70
2022/07/23 05:00:29;;;;;;;4.33;4.03;;;22.80;39.50;;;;;;10461457;28;20737;-70
2022/07/23 05:05:32;;;;;;;4.90;4.33;;;22.70;38.90;;;;;;10462618;28;20231;-70
2022/07/23 05:10:36;;;;;;;6.07;4.47;;;22.60;39.50;;;;;;10462379;28;20231;-70
2022/07/23 05:15:40;;;;;;;5.97;4.30;;;22.60;40.60;;;;;;10463929;28;20853;-70
2022/07/23 05:20:43;;;;;;;5.17;4.67;;;22.60;40.00;;;;;;10462281;28;20777;-71
2022/07/23 05:25:47;;;;;;;4.80;4.37;;;22.60;40.00;;;;;;10463104;28;20237;-70
2022/07/23 05:30:51;;;;;;;4.87;4.50;;;22.60;40.80;;;;;;10462488;28;20220;-70
2022/07/23 05:35:54;;;;;;;4.50;4.10;;;22.70;40.40;;;;;;10461099;28;20477;-70
2022/07/23 05:41:00;;;;;;;5.17;4.67;;;22.80;40.40;;;;;;10458652;28;20227;-70
2022/07/23 05:46:03;;;;;;;5.03;4.63;;;22.90;41.20;;;;;;10459412;28;20240;-71
2022/07/23 05:51:06;;;;;;;8.33;4.40;;;23.00;40.30;;;;;;10477188;28;20224;-75
2022/07/23 05:56:11;;;;;;;4.83;4.33;;;23.10;40.50;;;;;;10473100;28;20351;-75
2022/07/23 06:01:14;;;;;;;4.47;4.10;;;23.10;41.20;;;;;;10467742;28;20221;-75
2022/07/23 06:06:18;;;;;;;4.30;4.00;;;23.10;40.70;;;;;;10472012;28;20232;-75
2022/07/23 06:11:22;;;;;;;4.53;4.20;;;23.20;40.80;;;;;;10475903;28;20221;-75
2022/07/23 06:16:25;;;;;;;4.93;4.63;;;23.30;41.60;;;;;;10463051;28;20232;-74
2022/07/23 06:21:29;;;;;;;4.43;4.03;;;23.30;41.00;;;;;;10470528;28;20626;-75
2022/07/23 06:26:51;;;;;;;4.83;4.43;;;23.40;40.90;;;;;;10466299;28;20231;-73
2022/07/23 06:31:54;;;;;;;4.27;3.93;;;23.40;41.80;;;;;;10466172;28;20886;-74
2022/07/23 06:36:58;;;;;;;5.20;4.33;;;23.50;40.90;;;;;;10474426;28;20644;-74
2022/07/23 06:42:03;;;;;;;4.50;4.10;;;23.60;41.50;;;;;;10473628;28;20235;-75
2022/07/23 06:47:08;;;;;;;4.70;4.30;;;23.80;41.90;;;;;;10470833;28;20307;-74
2022/07/23 06:52:11;;;;;;;4.93;4.00;;;24.00;41.40;;;;;;10458805;28;20731;-72
2022/07/23 06:57:16;;;;;;;4.70;4.33;;;24.20;41.30;;;;;;10452745;28;20318;-72
2022/07/23 07:02:19;;;;;;;4.20;3.90;;;24.40;41.90;;;;;;10455414;28;20228;-71
2022/07/23 07:07:22;;;;;;;4.50;4.00;;;24.50;40.70;;;;;;10456200;28;20255;-72
2022/07/23 07:12:27;;;;;;;4.87;4.43;;;24.60;40.50;;;;;;10459015;28;20235;-71
2022/07/23 07:17:30;;;;;;;4.87;4.47;;;24.70;41.10;;;;;;10455895;28;20622;-72
2022/07/23 07:22:34;;;;;;;4.70;4.40;;;24.70;40.60;;;;;;10451219;28;20602;-71
2022/07/23 07:27:38;;;;;;;5.60;5.20;;;24.80;40.70;;;;;;10455548;28;20934;-70
2022/07/23 07:32:43;;;;;;;5.17;4.77;;;24.90;40.80;;;;;;10452919;28;20704;-70
2022/07/23 07:38:01;;;;;;;5.33;4.93;;;24.90;40.90;;;;;;10455506;28;20248;-69
2022/07/23 07:43:06;;;;;;;6.77;4.57;;;24.90;40.80;;;;;;10458389;28;20220;-70
2022/07/23 07:48:09;;;;;;;5.33;4.90;;;24.90;40.80;;;;;;10451550;28;20228;-70
2022/07/23 07:53:12;;;;;;;6.23;5.10;;;25.00;40.60;;;;;;10455828;28;20223;-69
2022/07/23 07:58:17;;;;;;;5.80;5.23;;;25.10;40.40;;;;;;10454990;28;20225;-71
2022/07/23 08:03:21;;;;;;;4.97;4.67;;;25.10;40.40;;;;;;10452417;28;20661;-71
2022/07/23 08:08:24;;;;;;;5.17;4.87;;;25.10;40.00;;;;;;10449171;28;20229;-71
2022/07/23 08:13:29;;;;;;;6.53;6.03;;;25.20;39.90;;;;;;10453522;28;20224;-71
2022/07/23 08:18:32;;;;;;;7.60;5.40;;;25.20;40.10;;;;;;10452809;28;20233;-69
2022/07/23 08:23:35;;;;;;;6.10;5.40;;;25.30;39.90;;;;;;10462326;28;20248;-69
2022/07/23 08:28:40;;;;;;;5.47;5.07;;;25.40;39.70;;;;;;10462154;28;20275;-69
2022/07/23 08:33:43;;;;;;;5.70;5.30;;;25.40;40.20;;;;;;10459528;28;20240;-69
2022/07/23 08:38:46;;;;;;;5.73;5.30;;;25.40;39.50;;;;;;10461750;28;20224;-69
2022/07/23 08:43:51;;;;;;;6.10;5.60;;;25.50;39.90;;;;;;10461884;28;20231;-70
2022/07/23 08:48:55;;;;;;;5.90;5.50;;;25.60;40.10;;;;;;10465842;28;20227;-69
2022/07/23 08:53:59;;;;;;;5.73;5.33;;;25.60;39.70;;;;;;10463898;28;20224;-70
2022/07/23 08:59:04;;;;;;;5.60;5.20;;;25.70;39.70;;;;;;10463523;28;20335;-70
2022/07/23 09:04:07;;;;;;;6.20;5.77;;;25.80;39.50;;;;;;10464930;28;20232;-70
2022/07/23 09:09:18;;;;;;;7.70;5.47;;;25.80;39.20;;;;;;10464895;28;20229;-70
2022/07/23 09:14:37;;;;;;;6.27;5.77;;;25.90;39.00;;;;;;10462457;28;20236;-69
2022/07/23 09:19:42;;;;;;;6.83;6.13;;;26.00;39.40;;;;;;10459113;28;20232;-69
2022/07/23 09:25:10;;;;;;;6.00;5.50;;;26.00;39.50;;;;;;10462239;28;20240;-69
2022/07/23 09:30:15;;;;;;;6.20;5.67;;;26.20;39.50;;;;;;10462466;28;20216;-69
2022/07/23 09:35:18;;;;;;;5.87;5.23;;;26.40;39.20;;;;;;10460304;28;20233;-69
2022/07/23 09:40:21;;;;;;;6.03;5.47;;;26.60;38.90;;;;;;10459435;28;20236;-69
2022/07/23 09:45:26;;;;;;;5.60;5.20;;;26.80;38.70;;;;;;10459088;28;20225;-69
2022/07/23 09:50:29;;;;;;;5.87;5.37;;;27.10;38.80;;;;;;10459384;28;20224;-69
2022/07/23 09:55:36;;;;;;;5.60;5.10;;;27.40;38.70;;;;;;10458422;28;20240;-69
2022/07/23 10:00:42;;;;;;;5.27;4.87;;;27.70;38.40;;;;;;10454944;28;20229;-69
2022/07/23 10:05:46;;;;;;;5.10;4.70;;;27.90;36.90;;;;;;10454828;28;20922;-69
2022/07/23 10:10:51;;;;;;;5.27;4.87;;;28.20;36.50;;;;;;10457654;28;20605;-69
2022/07/23 10:15:55;;;;;;;5.33;4.97;;;28.40;36.30;;;;;;10459533;28;20228;-69
2022/07/23 10:21:00;;;;;;;4.70;4.40;;;28.60;35.60;;;;;;10456497;28;20227;-69
2022/07/23 10:26:12;;;;;;;5.03;4.70;;;28.90;35.40;;;;;;10457257;28;20223;-70
2022/07/23 10:31:35;;;;;;;5.10;4.70;;;29.10;33.60;;;;;;10461455;28;20231;-69
2022/07/23 10:37:06;;;;;;;4.63;4.33;;;29.40;33.80;;;;;;10466729;28;20228;-75
2022/07/23 10:42:11;;;;;;;5.10;4.70;;;29.50;33.80;;;;;;10470181;28;20545;-74
2022/07/23 10:47:40;;;;;;;5.53;4.93;;;29.70;33.50;;;;;;10470732;28;20581;-74
2022/07/23 10:53:19;;;;;;;5.20;4.80;;;29.90;32.10;;;;;;10472581;28;20252;-75
2022/07/23 10:58:44;;;;;;;5.50;5.10;;;30.00;33.20;;;;;;10393496;28;20239;-75
2022/07/23 11:03:58;;;;;;;5.40;5.00;;;30.10;32.30;;;;;;10469034;28;20228;-75
2022/07/23 11:09:26;;;;;;;5.67;5.27;;;30.30;31.70;;;;;;10465220;28;20297;-74
2022/07/23 11:15:00;;;;;;;5.23;4.80;;;30.40;32.10;;;;;;10463730;28;20232;-75
2022/07/23 11:20:21;;;;;;;5.67;5.17;;;30.50;31.90;;;;;;10468763;28;20232;-74
2022/07/23 11:25:36;;;;;;;6.30;5.80;;;30.70;32.00;;;;;;10464408;28;20232;-75
2022/07/23 11:30:42;;;;;;;5.30;5.00;;;30.80;30.70;;;;;;10466087;28;20224;-69
2022/07/23 11:35:49;;;;;;;5.23;4.83;;;30.90;30.20;;;;;;10455788;28;20236;-69
2022/07/23 11:40:56;;;;;;;5.60;5.20;;;30.90;29.50;;;;;;10452228;28;20221;-69
2022/07/23 11:46:01;;;;;;;5.67;5.23;;;30.80;29.70;;;;;;10455050;28;20233;-69
2022/07/23 11:51:05;;;;;;;4.93;4.63;;;30.70;30.10;;;;;;10459007;28;20720;-69
2022/07/23 11:56:11;;;;;;;5.17;4.70;;;30.70;29.90;;;;;;10463275;28;20275;-69
2022/07/23 12:01:14;;;;;;;5.70;5.30;;;30.90;30.00;;;;;;10461381;28;20228;-69
2022/07/23 12:06:23;;;;;;;5.33;4.97;;;31.00;29.80;;;;;;10464738;28;20238;-69
2022/07/23 12:11:27;;;;;;;5.63;5.13;;;31.20;28.80;;;;;;10462705;28;20613;-74
2022/07/23 12:16:30;;;;;;;5.60;5.20;;;31.30;29.70;;;;;;10462570;28;20235;-74
2022/07/23 12:21:35;;;;;;;5.33;4.93;;;31.30;29.40;;;;;;10457731;28;20727;-74
2022/07/23 12:26:38;;;;;;;4.70;4.37;;;31.40;28.50;;;;;;10457151;28;20592;-74
2022/07/23 12:31:42;;;;;;;4.43;4.13;;;31.50;28.10;;;;;;10462063;28;20602;-74
2022/07/23 12:36:47;;;;;;;4.37;4.07;;;31.50;28.10;;;;;;10461966;28;20717;-74
2022/07/23 12:41:56;;;;;;;5.13;4.80;;;31.60;27.50;;;;;;10458297;28;20331;-74
2022/07/23 12:46:59;;;;;;;4.60;4.30;;;31.70;27.30;;;;;;10459824;28;20231;-74
2022/07/23 12:52:16;;;;;;;4.73;4.33;;;31.80;27.40;;;;;;10458349;28;20233;-73
2022/07/23 12:57:46;;;;;;;4.97;4.47;;;31.80;27.00;;;;;;10462300;28;20255;-74
2022/07/23 13:02:49;;;;;;;5.00;4.60;;;31.90;26.90;;;;;;10458330;28;20232;-74
2022/07/23 13:07:53;;;;;;;5.00;4.60;;;32.00;26.90;;;;;;10457384;28;20236;-74
2022/07/23 13:12:57;;;;;;;4.93;4.53;;;32.00;26.60;;;;;;10446895;28;20231;-74
2022/07/23 13:18:00;;;;;;;7.20;6.60;;;32.00;26.40;;;;;;10447436;28;20235;-74
2022/07/23 13:23:07;;;;;;;12.10;10.87;;;31.90;26.50;;;;;;10447995;28;20225;-74
2022/07/23 13:28:10;;;;;;;10.00;9.20;;;31.70;26.20;;;;;;10455331;28;20233;-74
2022/07/23 13:33:14;;;;;;;6.03;5.63;;;31.60;26.50;;;;;;10445889;28;20216;-74
2022/07/23 13:38:20;;;;;;;10.17;9.37;;;31.60;26.90;;;;;;10448483;28;20229;-75
2022/07/23 13:43:25;;;;;;;10.23;9.40;;;31.50;26.80;;;;;;10458062;28;20232;-76
2022/07/23 13:48:29;;;;;;;7.20;6.60;;;31.50;26.90;;;;;;10456007;28;20224;-75
2022/07/23 13:53:33;;;;;;;5.93;5.53;;;31.50;26.90;;;;;;10455399;28;20225;-76
2022/07/23 13:58:36;;;;;;;5.30;4.90;;;31.50;26.50;;;;;;10459120;28;20227;-75
2022/07/23 14:03:40;;;;;;;5.30;4.90;;;31.50;26.40;;;;;;10459784;28;20229;-75
2022/07/23 14:08:45;;;;;;;5.43;5.03;;;31.30;26.60;;;;;;10462087;28;20236;-75
2022/07/23 14:13:50;;;;;;;5.50;5.10;;;31.30;26.90;;;;;;10461289;28;20220;-75
2022/07/23 14:18:54;;;;;;;5.93;5.33;;;31.20;27.10;;;;;;10460737;28;20232;-75
2022/07/23 14:23:59;;;;;;;5.67;5.27;;;31.10;26.80;;;;;;10463405;28;20232;-75
2022/07/23 14:29:02;;;;;;;6.30;5.80;;;31.00;26.80;;;;;;10460599;28;20810;-74
2022/07/23 14:34:07;;;;;;;6.03;5.63;;;30.70;27.40;;;;;;10461650;28;20286;-70
2022/07/23 14:39:11;;;;;;;5.67;5.27;;;30.50;28.20;;;;;;10453999;28;20237;-70
2022/07/23 14:44:16;;;;;;;6.13;5.53;;;30.30;29.20;;;;;;10458989;28;20252;-69
2022/07/23 14:49:19;;;;;;;6.60;6.10;;;30.00;28.90;;;;;;10460457;28;20248;-69
2022/07/23 14:54:25;;;;;;;6.90;6.30;;;29.70;29.80;;;;;;10459630;28;20654;-69
2022/07/23 14:59:30;;;;;;;6.20;5.70;;;29.40;31.10;;;;;;10459257;28;20248;-69
2022/07/23 15:04:34;;;;;;;6.17;5.67;;;29.20;31.00;;;;;;10459816;28;20234;-75
2022/07/23 15:09:59;;;;;;;6.50;5.90;;;29.00;31.40;;;;;;10465905;28;20228;-75
2022/07/23 15:15:02;;;;;;;6.43;5.93;;;29.00;32.20;;;;;;10465358;28;20235;-73
2022/07/23 15:20:12;;;;;;;6.80;6.27;;;29.00;32.10;;;;;;10473969;28;20228;-75
2022/07/23 15:25:21;;;;;;;6.70;6.20;;;29.00;32.60;;;;;;10465864;28;20279;-75
2022/07/23 15:30:25;;;;;;;6.93;6.43;;;29.00;33.50;;;;;;10469686;28;20224;-76
2022/07/23 15:35:32;;;;;;;6.70;6.10;;;29.00;33.10;;;;;;10462440;28;20250;-75
2022/07/23 15:40:36;;;;;;;6.40;5.90;;;29.00;33.70;;;;;;10459869;28;20319;-75
2022/07/23 15:45:40;;;;;;;7.30;6.80;;;29.10;33.60;;;;;;10454118;28;20319;-76
2022/07/23 15:50:43;;;;;;;7.50;6.40;;;29.20;33.20;;;;;;10452507;28;20259;-76
2022/07/23 15:55:49;;;;;;;7.27;6.40;;;29.30;33.40;;;;;;10464535;28;20229;-76
2022/07/23 16:00:52;;;;;;;7.30;6.47;;;29.40;33.70;;;;;;10461868;28;20232;-75
2022/07/23 16:05:56;;;;;;;7.67;7.07;;;29.40;33.10;;;;;;10460470;28;20237;-76
2022/07/23 16:11:01;;;;;;;6.97;6.40;;;29.50;33.10;;;;;;10460616;28;20224;-76
2022/07/23 16:16:06;;;;;;;6.70;6.20;;;29.60;33.90;;;;;;10466674;28;20225;-76
2022/07/23 16:21:09;;;;;;;7.30;6.73;;;29.60;33.20;;;;;;10463448;28;20232;-75
2022/07/23 16:26:20;;;;;;;5.80;5.40;;;29.70;33.40;;;;;;10456940;28;20229;-76
2022/07/23 16:31:25;;;;;;;6.50;6.00;;;29.70;31.00;;;;;;10460425;28;20688;-76
2022/07/23 16:36:29;;;;;;;5.93;5.53;;;29.80;31.50;;;;;;10454588;28;20232;-76
2022/07/23 16:41:34;;;;;;;6.53;6.03;;;29.90;30.70;;;;;;10467975;28;20235;-76
2022/07/23 16:46:37;;;;;;;7.20;6.60;;;29.90;31.50;;;;;;10464060;28;20217;-76
2022/07/23 16:51:40;;;;;;;7.50;6.83;;;29.90;31.50;;;;;;10461994;28;20235;-70
2022/07/23 16:56:45;;;;;;;6.40;5.90;;;30.00;31.50;;;;;;10464347;28;20636;-70
2022/07/23 17:01:48;;;;;;;7.00;6.50;;;29.90;31.50;;;;;;10462827;28;20232;-70
2022/07/23 17:06:52;;;;;;;6.73;6.23;;;29.90;31.50;;;;;;10470618;28;20224;-75
2022/07/23 17:11:56;;;;;;;6.93;6.43;;;29.80;31.40;;;;;;10478091;28;20224;-80
2022/07/23 17:17:00;;;;;;;6.63;6.07;;;29.80;31.40;;;;;;10474387;28;20229;-78
2022/07/23 17:22:03;;;;;;;6.87;6.37;;;29.70;31.90;;;;;;10472293;28;20692;-76
2022/07/23 17:27:08;;;;;;;6.70;6.10;;;29.70;32.00;;;;;;10475325;28;20235;-78
2022/07/23 17:32:11;;;;;;;6.57;6.07;;;29.60;31.80;;;;;;10478112;28;20236;-78
2022/07/23 17:37:15;;;;;;;6.53;6.10;;;29.50;31.60;;;;;;10468563;28;20232;-78
2022/07/23 17:42:19;;;;;;;6.87;6.37;;;29.50;31.60;;;;;;10472916;28;20723;-78
2022/07/23 17:47:22;;;;;;;6.83;6.30;;;29.50;31.70;;;;;;10473846;28;20235;-78
2022/07/23 17:52:26;;;;;;;7.10;6.50;;;29.40;31.70;;;;;;10472722;28;20228;-77
2022/07/23 17:57:30;;;;;;;6.30;5.90;;;29.30;31.80;;;;;;10476600;28;20259;-77
2022/07/23 18:02:33;;;;;;;6.63;6.03;;;29.30;32.20;;;;;;10467402;28;20220;-78
2022/07/23 18:07:37;;;;;;;7.40;6.90;;;29.30;32.10;;;;;;10468721;28;20228;-77
2022/07/23 18:12:42;;;;;;;6.77;6.17;;;29.20;32.10;;;;;;10468926;28;20232;-77
2022/07/23 18:17:46;;;;;;;6.80;6.30;;;29.20;32.30;;;;;;10471649;28;20236;-77
2022/07/23 18:22:49;;;;;;;6.83;6.27;;;29.20;32.20;;;;;;10474907;28;20224;-77
2022/07/23 18:27:54;;;;;;;6.90;6.40;;;29.20;32.60;;;;;;10471139;28;20316;-78
2022/07/23 18:32:57;;;;;;;7.07;6.47;;;29.20;33.60;;;;;;10479460;28;20232;-78
2022/07/23 18:38:06;;;;;;;6.77;6.27;;;29.20;33.00;;;;;;10467460;28;20224;-77
2022/07/23 18:43:11;;;;;;;6.33;5.93;;;29.20;33.00;;;;;;10470148;28;20224;-77
2022/07/23 18:48:15;;;;;;;6.63;6.13;;;29.20;33.30;;;;;;10469847;28;20224;-77
2022/07/23 18:53:18;;;;;;;7.27;5.90;;;29.10;33.00;;;;;;10465244;28;20230;-77
2022/07/23 18:58:23;;;;;;;6.90;6.50;;;29.00;33.00;;;;;;10476910;28;20258;-78
2022/07/23 19:03:26;;;;;;;6.93;6.43;;;28.90;33.70;;;;;;10467955;28;20740;-77
2022/07/23 19:08:30;;;;;;;6.97;6.47;;;28.80;33.50;;;;;;10472235;28;20228;-78
2022/07/23 19:13:36;;;;;;;7.50;6.90;;;28.60;33.50;;;;;;10472361;28;20307;-78
2022/07/23 19:18:40;;;;;;;7.90;7.10;;;28.40;34.20;;;;;;10467744;28;20228;-78
2022/07/23 19:23:43;;;;;;;7.57;7.00;;;28.30;34.20;;;;;;10473924;28;20232;-78
2022/07/23 19:28:51;;;;;;;7.87;7.30;;;28.20;34.30;;;;;;10473601;28;20228;-77
2022/07/23 19:33:54;;;;;;;8.03;7.43;;;28.10;35.10;;;;;;10472851;28;20790;-78
2022/07/23 19:38:58;;;;;;;8.83;8.03;;;28.10;34.80;;;;;;10468586;28;20233;-77
2022/07/23 19:44:04;;;;;;;8.77;8.07;;;28.00;35.00;;;;;;10471656;28;20632;-76
2022/07/23 19:49:07;;;;;;;8.37;7.73;;;27.90;35.60;;;;;;10469525;28;20586;-76
2022/07/23 19:54:11;;;;;;;8.33;7.47;;;27.70;35.10;;;;;;10472573;28;20252;-77
2022/07/23 19:59:16;;;;;;;7.47;6.87;;;27.50;35.20;;;;;;10473472;28;20247;-77
2022/07/23 20:04:19;;;;;;;8.27;7.57;;;27.30;35.90;;;;;;10467351;28;20225;-77
2022/07/23 20:09:23;;;;;;;7.63;7.03;;;27.20;36.10;;;;;;10465631;28;20232;-78
2022/07/23 20:14:27;;;;;;;8.03;7.43;;;27.20;36.10;;;;;;10469512;28;20273;-78
2022/07/23 20:19:30;;;;;;;8.20;7.50;;;27.20;36.50;;;;;;10479219;28;20220;-78
2022/07/23 20:24:34;;;;;;;8.47;7.87;;;27.10;36.00;;;;;;10475555;28;20235;-78
2022/07/23 20:29:38;;;;;;;8.33;7.70;;;27.10;36.10;;;;;;10471399;28;20310;-77
2022/07/23 20:34:42;;;;;;;7.10;6.50;;;27.00;36.50;;;;;;10473076;28;20225;-77
2022/07/23 20:39:45;;;;;;;7.03;6.53;;;26.90;36.00;;;;;;10478125;28;20243;-78
2022/07/23 20:44:50;;;;;;;8.80;8.00;;;26.90;36.00;;;;;;10480702;28;20228;-77
2022/07/23 20:49:55;;;;;;;7.57;6.97;;;26.90;36.50;;;;;;10476559;28;20403;-77
2022/07/23 20:55:02;;;;;;;9.40;8.50;;;26.80;36.00;;;;;;10478071;28;20225;-77
2022/07/23 21:00:09;;;;;;;9.10;8.40;;;26.80;36.30;;;;;;10480611;28;20267;-77
2022/07/23 21:05:12;;;;;;;8.57;7.87;;;26.80;37.20;;;;;;10476035;28;20229;-77
2022/07/23 21:10:15;;;;;;;8.43;7.70;;;26.70;36.60;;;;;;10484552;28;20246;-77
2022/07/23 21:15:20;;;;;;;8.40;7.63;;;26.60;36.70;;;;;;10470906;28;20230;-78
2022/07/23 21:20:23;;;;;;;7.47;6.97;;;26.60;37.20;;;;;;10483492;28;20238;-78
2022/07/23 21:25:27;;;;;;;8.10;7.40;;;26.60;36.90;;;;;;10475886;28;20227;-77
2022/07/23 21:30:32;;;;;;;8.53;7.83;;;26.50;37.00;;;;;;10470995;28;20931;-77
2022/07/23 21:35:35;;;;;;;8.60;7.80;;;26.50;37.40;;;;;;10482194;28;20228;-76
2022/07/23 21:40:38;;;;;;;7.77;7.13;;;26.40;37.10;;;;;;10473920;28;20235;-76
2022/07/23 21:45:43;;;;;;;7.37;6.80;;;26.30;36.70;;;;;;10464477;28;20224;-77
2022/07/23 21:50:46;;;;;;;6.80;6.30;;;26.30;37.10;;;;;;10480305;28;20225;-77
2022/07/23 21:55:50;;;;;;;7.17;6.67;;;26.20;36.80;;;;;;10470071;28;20723;-77
2022/07/23 22:00:57;;;;;;;7.10;6.43;;;26.10;36.90;;;;;;10478209;28;20228;-77
2022/07/23 22:06:00;;;;;;;7.17;6.67;;;26.00;37.70;;;;;;10463845;28;20282;-77
2022/07/23 22:11:04;;;;;;;7.83;7.17;;;26.00;37.10;;;;;;10467636;28;20231;-76
2022/07/23 22:16:08;;;;;;;7.40;6.90;;;25.80;37.00;;;;;;10473810;28;20231;-75
2022/07/23 22:21:12;;;;;;;7.10;6.60;;;25.60;37.30;;;;;;10477859;28;20232;-76
2022/07/23 22:26:35;;;;;;;8.27;7.67;;;25.40;37.20;;;;;;10474697;28;20217;-77
2022/07/23 22:31:40;;;;;;;8.40;7.70;;;25.30;37.50;;;;;;10473063;28;20722;-76
2022/07/23 22:36:43;;;;;;;7.70;6.90;;;25.20;37.90;;;;;;10469907;28;20229;-76
2022/07/23 22:41:47;;;;;;;7.87;7.20;;;25.20;37.50;;;;;;10475447;28;20225;-77
2022/07/23 22:46:51;;;;;;;7.93;7.23;;;25.10;37.50;;;;;;10464165;28;20234;-76
2022/07/23 22:51:54;;;;;;;8.10;7.50;;;24.90;38.10;;;;;;10469913;28;20224;-75
2022/07/23 22:56:58;;;;;;;7.57;6.97;;;24.80;37.80;;;;;;10464870;28;20611;-76
2022/07/23 23:02:03;;;;;;;7.57;6.77;;;24.70;38.20;;;;;;10467345;28;20572;-77
2022/07/23 23:07:06;;;;;;;7.27;6.67;;;24.50;38.90;;;;;;10467974;28;20225;-76
2022/07/23 23:12:09;;;;;;;7.13;6.53;;;24.50;38.80;;;;;;10473091;28;20235;-76
2022/07/23 23:17:14;;;;;;;7.43;6.83;;;24.50;39.00;;;;;;10468070;28;20239;-76
2022/07/23 23:22:17;;;;;;;10.00;6.87;;;24.50;39.50;;;;;;10469888;28;20231;-76
2022/07/23 23:27:20;;;;;;;8.13;6.90;;;24.50;39.10;;;;;;10470940;28;20233;-76
2022/07/23 23:32:25;;;;;;;8.00;7.20;;;24.50;39.00;;;;;;10470747;28;20713;-76
2022/07/23 23:37:28;;;;;;;7.80;6.83;;;24.50;39.40;;;;;;10466877;28;20299;-76
2022/07/23 23:42:37;;;;;;;7.90;6.43;;;24.40;39.00;;;;;;10469534;28;20303;-75
2022/07/23 23:47:42;;;;;;;7.53;6.93;;;24.40;39.10;;;;;;10473419;28;20233;-76
2022/07/23 23:52:45;;;;;;;7.30;6.57;;;24.40;39.40;;;;;;10478310;28;20232;-73
2022/07/23 23:57:48;;;;;;;7.00;6.30;;;24.40;38.90;;;;;;10458924;28;20230;-73
